King of Scandinavia — OVOL2 — position and weather

sailwx.info

Track history (hours):
 
Tides and Currents Weather Stations Pressure Air Temp Water Temp Dewpoint Dewpoint Depression Visibility Wind Speed Wind Dir Waves Ship Positions

King of Scandinavia

Ship's website: http://www.dfds.co.uk/DSW/EN/OnBoard/na/KING.htm

Last reported at 2016-Jun-27 16:33 UTC. Time now 2016-Jun-27 16:53 UTC.
Position N 55°01' W 001°17'.

Length 166 m; beam 27.6 m; draft 6.2 m.

Type: Passenger vessel. MMSI: 220449000.

Date/timePositionNaut miles runAvg speedWind from/ knotsBaromVisibWave heightAir tempDewpointWater temp
2016-Jun-27 16:33N 55°01' W 001°17'6 5.7
2016-Jun-27 15:29N 54°59' W 001°27'0 0.0
2016-Jun-27 14:29N 54°59' W 001°27'0 0.0
2016-Jun-27 13:32N 54°59' W 001°27'0 0.0
2016-Jun-27 12:32N 54°59' W 001°27'0 0.0
2016-Jun-27 11:32N 54°59' W 001°27'0 0.0
2016-Jun-27 10:17N 54°59' W 001°27'0 0.0
2016-Jun-27 09:23N 54°59' W 001°27'0 0.0
2016-Jun-27 08:32N 54°59' W 001°27'4 4.4
2016-Jun-27 07:34N 55°00' W 001°20'1616.0
2016-Jun-27 06:34N 54°51' W 000°56'1616.2
2016-Jun-27 05:34N 54°43' W 000°33'1716.7
2016-Jun-27 04:33N 54°34' W 000°09'1717.3
2016-Jun-27 03:33N 54°24' E 000°16'6917.4
2016-Jun-26 23:33N 53°47' E 001°56'1616.3
2016-Jun-26 22:33N 53°38' E 002°19'1615.9
2016-Jun-26 21:33N 53°26' E 002°38'1615.8
2016-Jun-26 20:33N 53°16' E 002°58'3316.1
2016-Jun-26 18:30N 52°55' E 003°41'1515.8
2016-Jun-26 17:33N 52°45' E 003°59'1615.8
2016-Jun-26 16:33N 52°35' E 004°19'1212.2
2016-Jun-26 15:33N 52°28' E 004°35'0 0.0
2016-Jun-26 14:33N 52°28' E 004°35'0 0.0
2016-Jun-26 13:32N 52°28' E 004°35'0 0.0
2016-Jun-26 12:32N 52°28' E 004°35'0 0.0
2016-Jun-26 11:33N 52°28' E 004°35'0 0.0
2016-Jun-26 10:32N 52°28' E 004°35'0 0.0
2016-Jun-26 09:33N 52°28' E 004°35'0 0.0
2016-Jun-26 08:32N 52°28' E 004°35'0 0.2
2016-Jun-26 07:33N 52°28' E 004°35'1312.9
2016-Jun-26 06:33N 52°36' E 004°18'8717.0
2016-Jun-26 01:26N 53°32' E 002°26'8317.0
2016-Jun-25 20:34N 54°19' E 000°31'1717.2
2016-Jun-25 19:34N 54°28' E 000°06'1717.2
2016-Jun-25 18:34N 54°38' W 000°19'1717.2
2016-Jun-25 17:33N 54°48' W 000°43'1918.7
2016-Jun-25 16:33N 54°57' W 001°11'9 9.2
2016-Jun-25 15:33N 54°59' W 001°27'0 0.0
2016-Jun-25 14:26N 54°59' W 001°27'0 0.0
2016-Jun-25 13:32N 54°59' W 001°27'0 0.0
2016-Jun-25 12:29N 54°59' W 001°27'0 0.0
2016-Jun-25 11:32N 54°59' W 001°27'0 0.0
2016-Jun-25 10:29N 54°59' W 001°27'0 0.0
2016-Jun-25 09:32N 54°59' W 001°27'0 0.0
2016-Jun-25 08:32N 54°59' W 001°27'6 6.2
2016-Jun-25 07:34N 54°59' W 001°16'1717.2
2016-Jun-25 06:33N 54°50' W 000°51'1615.5
2016-Jun-25 05:32N 54°41' W 000°28'1414.8
2016-Jun-25 04:34N 54°34' W 000°07'1515.5
2016-Jun-25 03:34N 54°25' E 000°15'1817.3
2016-Jun-25 02:31N 54°15' E 000°41'4618.6
2016-Jun-25 00:03N 53°50' E 001°46'917.5
2016-Jun-24 23:33N 53°45' E 001°58'1615.5
2016-Jun-24 22:33N 53°36' E 002°20'1616.0
2016-Jun-24 21:33N 53°26' E 002°39'5215.7
2016-Jun-24 18:16N 52°52' E 003°45'1216.3
2016-Jun-24 17:34N 52°45' E 004°00'1716.6
2016-Jun-24 16:33N 52°34' E 004°21'1110.6
2016-Jun-24 15:34N 52°28' E 004°35'0 0.0
2016-Jun-24 14:31N 52°28' E 004°35'0 0.0
2016-Jun-24 13:31N 52°28' E 004°35'0 0.0
2016-Jun-24 12:31N 52°28' E 004°35'0 0.0
2016-Jun-24 11:31N 52°28' E 004°35'0 0.0
2016-Jun-24 10:31N 52°28' E 004°35'0 0.0
2016-Jun-24 09:31N 52°28' E 004°35'0 0.0
2016-Jun-24 08:31N 52°28' E 004°35'6 6.2
2016-Jun-24 07:33N 52°30' E 004°26'17817.5
2016-Jun-23 21:21N 54°20' E 000°30'1518.6
2016-Jun-23 20:33N 54°28' E 000°09'1919.0
2016-Jun-23 19:33N 54°38' W 000°19'1919.0
2016-Jun-23 18:33N 54°48' W 000°47'1918.8
2016-Jun-23 17:34N 54°58' W 001°14'8 7.6
2016-Jun-23 16:34N 54°59' W 001°27'0 0.0
2016-Jun-23 15:33N 54°59' W 001°27'0 0.0
2016-Jun-23 14:25N 54°59' W 001°27'0 0.0
2016-Jun-23 13:31N 54°59' W 001°27'0 0.0
2016-Jun-23 12:25N 54°59' W 001°27'0 0.0
2016-Jun-23 11:28N 54°59' W 001°27'0 0.0
2016-Jun-23 10:34N 54°59' W 001°27'0 0.0
2016-Jun-23 09:28N 54°59' W 001°27'0 0.0
2016-Jun-23 08:28N 54°59' W 001°27'4 4.9
2016-Jun-23 07:33N 55°01' W 001°19'3015.2
2016-Jun-23 05:33N 54°44' W 000°35'1514.8
2016-Jun-23 04:33N 54°36' W 000°14'1515.0
2016-Jun-23 03:33N 54°27' E 000°08'1615.7
2016-Jun-23 02:33N 54°19' E 000°30'5918.2
2016-Jun-22 23:21N 53°47' E 001°54'1417.8
2016-Jun-22 22:33N 53°39' E 002°14'1716.9
2016-Jun-22 21:33N 53°28' E 002°36'1616.0
2016-Jun-22 20:33N 53°17' E 002°55'6515.9
2016-Jun-22 16:29N 52°36' E 004°18'1314.3
2016-Jun-22 15:34N 52°28' E 004°35'0 0.1
2016-Jun-22 14:33N 52°28' E 004°35'0 0.0
2016-Jun-22 13:33N 52°28' E 004°35'0 0.0
2016-Jun-22 12:34N 52°28' E 004°35'0 0.0
2016-Jun-22 11:34N 52°28' E 004°35'0 0.0
2016-Jun-22 10:33N 52°28' E 004°35'0 0.0
2016-Jun-22 09:33N 52°28' E 004°35'0 0.0
2016-Jun-22 08:34N 52°28' E 004°35'0 0.0
2016-Jun-22 07:33N 52°28' E 004°35'1110.9
2016-Jun-22 06:33N 52°34' E 004°21'1917.2
2016-Jun-22 05:28N 52°47' E 003°58'6917.3
2016-Jun-22 01:29N 53°31' E 002°29'1617.1
2016-Jun-22 00:33N 53°41' E 002°09'1717.1
2016-Jun-21 23:33N 53°51' E 001°45'4317.6
2016-Jun-21 21:07N 54°14' E 000°44'1017.6
2016-Jun-21 20:33N 54°20' E 000°30'1817.8
2016-Jun-21 19:33N 54°29' E 000°04'1818.3
2016-Jun-21 18:33N 54°39' W 000°22'1918.7
2016-Jun-21 17:33N 54°49' W 000°50'1918.7
2016-Jun-21 16:33N 54°59' W 001°17'6 5.6
2016-Jun-21 15:33N 54°59' W 001°27'0 0.0
2016-Jun-21 14:26N 54°59' W 001°27'0 0.0
2016-Jun-21 13:26N 54°59' W 001°27'0 0.0
2016-Jun-21 12:32N 54°59' W 001°27'0 0.0
2016-Jun-21 11:20N 54°59' W 001°27'0 0.0
2016-Jun-21 10:32N 54°59' W 001°27'0 0.0
2016-Jun-21 09:32N 54°59' W 001°27'0 0.0
2016-Jun-21 08:32N 54°59' W 001°27'5 4.7
2016-Jun-21 07:34N 55°01' W 001°19'1616.0
2016-Jun-21 06:33N 54°52' W 000°56'3316.5
2016-Jun-21 04:33N 54°34' W 000°08'1716.9
2016-Jun-21 03:33N 54°24' E 000°16'4217.7
2016-Jun-21 01:12N 54°02' E 001°16'1218.6
2016-Jun-21 00:33N 53°55' E 001°33'12216.6
2016-Jun-20 17:12N 52°39' E 004°13'914.9
2016-Jun-20 16:33N 52°33' E 004°25'8 8.0
2016-Jun-20 15:33N 52°28' E 004°35'0 0.0
2016-Jun-20 14:32N 52°28' E 004°35'0 0.0
2016-Jun-20 13:32N 52°28' E 004°35'0 0.0
2016-Jun-20 12:32N 52°28' E 004°35'0 0.0
2016-Jun-20 10:32N 52°28' E 004°35'0 0.0
2016-Jun-20 09:32N 52°28' E 004°35'0 0.0
2016-Jun-20 08:32N 52°28' E 004°35'1 0.6
2016-Jun-20 07:33N 52°28' E 004°34'1615.9
2016-Jun-20 06:33N 52°38' E 004°14'11816.8
2016-Jun-19 23:33N 53°52' E 001°42'1616.3
2016-Jun-19 22:33N 54°01' E 001°18'3316.7
2016-Jun-19 20:33N 54°19' E 000°31'1716.9
2016-Jun-19 19:33N 54°28' E 000°07'1717.3
2016-Jun-19 18:33N 54°38' W 000°18'1817.7
2016-Jun-19 17:33N 54°47' W 000°44'1818.1
2016-Jun-19 16:33N 54°57' W 001°11'9 9.5
2016-Jun-19 15:33N 54°59' W 001°27'0 0.0
2016-Jun-19 14:32N 54°59' W 001°27'0 0.0
2016-Jun-19 13:32N 54°59' W 001°27'0 0.0
2016-Jun-19 12:26N 54°59' W 001°27'0 0.0
2016-Jun-19 11:32N 54°59' W 001°27'0 0.0
2016-Jun-19 10:29N 54°59' W 001°27'0 0.0
2016-Jun-19 09:26N 54°59' W 001°27'0 0.0
2016-Jun-19 08:26N 54°59' W 001°27'3 3.6
2016-Jun-19 07:33N 55°01' W 001°22'1514.7
2016-Jun-19 06:33N 54°53' W 001°00'1515.2
2016-Jun-19 05:33N 54°45' W 000°38'1716.5
2016-Jun-19 04:33N 54°36' W 000°14'1716.5
2016-Jun-19 03:33N 54°27' E 000°09'1816.3
2016-Jun-19 02:27N 54°17' E 000°35'5117.6
2016-Jun-18 23:33N 53°50' E 001°49'1817.7
2016-Jun-18 22:33N 53°39' E 002°13'5216.6
2016-Jun-18 19:27N 53°06' E 003°19'4515.6
2016-Jun-18 16:33N 52°37' E 004°16'1414.0
2016-Jun-18 15:33N 52°28' E 004°34'1 0.9
2016-Jun-18 14:33N 52°28' E 004°35'0 0.0
2016-Jun-18 13:34N 52°28' E 004°35'0 0.0
2016-Jun-18 12:33N 52°28' E 004°35'0 0.0
2016-Jun-18 11:33N 52°28' E 004°35'0 0.0
2016-Jun-18 10:33N 52°28' E 004°35'0 0.0
2016-Jun-18 09:33N 52°28' E 004°35'0 0.0
2016-Jun-18 08:33N 52°28' E 004°35'0 0.1
2016-Jun-18 07:33N 52°28' E 004°35'1111.1
2016-Jun-18 06:33N 52°34' E 004°20'1716.5
2016-Jun-18 05:33N 52°45' E 003°59'7417.9
2016-Jun-18 01:24N 53°33' E 002°25'1517.3
2016-Jun-18 00:33N 53°43' E 002°06'7017.4
2016-Jun-17 20:33N 54°21' E 000°27'1817.5
2016-Jun-17 19:33N 54°30' E 000°02'1817.8
2016-Jun-17 18:34N 54°40' W 000°24'1818.0
2016-Jun-17 17:33N 54°50' W 000°50'  
Track history (hours):
 
Tides and Currents Weather Stations Pressure Air Temp Water Temp Dewpoint Dewpoint Depression Visibility Wind Speed Wind Dir Waves Ship Positions

King of Scandinavia

Ship's website: http://www.dfds.co.uk/DSW/EN/OnBoard/na/KING.htm

Last reported at 2016-Jun-27 16:33 UTC. Time now 2016-Jun-27 16:53 UTC.
Position N 55°01' W 001°17'.

Length 166 m; beam 27.6 m; draft 6.2 m.

Type: Passenger vessel. MMSI: 220449000.

Date/timePositionNaut miles runAvg speedWind from/ knotsBaromVisibWave heightAir tempDewpointWater temp
2016-Jun-27 16:33N 55°01' W 001°17'6 5.7
2016-Jun-27 15:29N 54°59' W 001°27'0 0.0
2016-Jun-27 14:29N 54°59' W 001°27'0 0.0
2016-Jun-27 13:32N 54°59' W 001°27'0 0.0
2016-Jun-27 12:32N 54°59' W 001°27'0 0.0
2016-Jun-27 11:32N 54°59' W 001°27'0 0.0
2016-Jun-27 10:17N 54°59' W 001°27'0 0.0
2016-Jun-27 09:23N 54°59' W 001°27'0 0.0
2016-Jun-27 08:32N 54°59' W 001°27'4 4.4
2016-Jun-27 07:34N 55°00' W 001°20'1616.0
2016-Jun-27 06:34N 54°51' W 000°56'1616.2
2016-Jun-27 05:34N 54°43' W 000°33'1716.7
2016-Jun-27 04:33N 54°34' W 000°09'1717.3
2016-Jun-27 03:33N 54°24' E 000°16'6917.4
2016-Jun-26 23:33N 53°47' E 001°56'1616.3
2016-Jun-26 22:33N 53°38' E 002°19'1615.9
2016-Jun-26 21:33N 53°26' E 002°38'1615.8
2016-Jun-26 20:33N 53°16' E 002°58'3316.1
2016-Jun-26 18:30N 52°55' E 003°41'1515.8
2016-Jun-26 17:33N 52°45' E 003°59'1615.8
2016-Jun-26 16:33N 52°35' E 004°19'1212.2
2016-Jun-26 15:33N 52°28' E 004°35'0 0.0
2016-Jun-26 14:33N 52°28' E 004°35'0 0.0
2016-Jun-26 13:32N 52°28' E 004°35'0 0.0
2016-Jun-26 12:32N 52°28' E 004°35'0 0.0
2016-Jun-26 11:33N 52°28' E 004°35'0 0.0
2016-Jun-26 10:32N 52°28' E 004°35'0 0.0
2016-Jun-26 09:33N 52°28' E 004°35'0 0.0
2016-Jun-26 08:32N 52°28' E 004°35'0 0.2
2016-Jun-26 07:33N 52°28' E 004°35'1312.9
2016-Jun-26 06:33N 52°36' E 004°18'8717.0
2016-Jun-26 01:26N 53°32' E 002°26'8317.0
2016-Jun-25 20:34N 54°19' E 000°31'1717.2
2016-Jun-25 19:34N 54°28' E 000°06'1717.2
2016-Jun-25 18:34N 54°38' W 000°19'1717.2
2016-Jun-25 17:33N 54°48' W 000°43'1918.7
2016-Jun-25 16:33N 54°57' W 001°11'9 9.2
2016-Jun-25 15:33N 54°59' W 001°27'0 0.0
2016-Jun-25 14:26N 54°59' W 001°27'0 0.0
2016-Jun-25 13:32N 54°59' W 001°27'0 0.0
2016-Jun-25 12:29N 54°59' W 001°27'0 0.0
2016-Jun-25 11:32N 54°59' W 001°27'0 0.0
2016-Jun-25 10:29N 54°59' W 001°27'0 0.0
2016-Jun-25 09:32N 54°59' W 001°27'0 0.0
2016-Jun-25 08:32N 54°59' W 001°27'6 6.2
2016-Jun-25 07:34N 54°59' W 001°16'1717.2
2016-Jun-25 06:33N 54°50' W 000°51'1615.5
2016-Jun-25 05:32N 54°41' W 000°28'1414.8
2016-Jun-25 04:34N 54°34' W 000°07'1515.5
2016-Jun-25 03:34N 54°25' E 000°15'1817.3
2016-Jun-25 02:31N 54°15' E 000°41'4618.6
2016-Jun-25 00:03N 53°50' E 001°46'917.5
2016-Jun-24 23:33N 53°45' E 001°58'1615.5
2016-Jun-24 22:33N 53°36' E 002°20'1616.0
2016-Jun-24 21:33N 53°26' E 002°39'5215.7
2016-Jun-24 18:16N 52°52' E 003°45'1216.3
2016-Jun-24 17:34N 52°45' E 004°00'1716.6
2016-Jun-24 16:33N 52°34' E 004°21'1110.6
2016-Jun-24 15:34N 52°28' E 004°35'0 0.0
2016-Jun-24 14:31N 52°28' E 004°35'0 0.0
2016-Jun-24 13:31N 52°28' E 004°35'0 0.0
2016-Jun-24 12:31N 52°28' E 004°35'0 0.0
2016-Jun-24 11:31N 52°28' E 004°35'0 0.0
2016-Jun-24 10:31N 52°28' E 004°35'0 0.0
2016-Jun-24 09:31N 52°28' E 004°35'0 0.0
2016-Jun-24 08:31N 52°28' E 004°35'6 6.2
2016-Jun-24 07:33N 52°30' E 004°26'17817.5
2016-Jun-23 21:21N 54°20' E 000°30'1518.6
2016-Jun-23 20:33N 54°28' E 000°09'1919.0
2016-Jun-23 19:33N 54°38' W 000°19'1919.0
2016-Jun-23 18:33N 54°48' W 000°47'1918.8
2016-Jun-23 17:34N 54°58' W 001°14'8 7.6
2016-Jun-23 16:34N 54°59' W 001°27'0 0.0
2016-Jun-23 15:33N 54°59' W 001°27'0 0.0
2016-Jun-23 14:25N 54°59' W 001°27'0 0.0
2016-Jun-23 13:31N 54°59' W 001°27'0 0.0
2016-Jun-23 12:25N 54°59' W 001°27'0 0.0
2016-Jun-23 11:28N 54°59' W 001°27'0 0.0
2016-Jun-23 10:34N 54°59' W 001°27'0 0.0
2016-Jun-23 09:28N 54°59' W 001°27'0 0.0
2016-Jun-23 08:28N 54°59' W 001°27'4 4.9
2016-Jun-23 07:33N 55°01' W 001°19'3015.2
2016-Jun-23 05:33N 54°44' W 000°35'1514.8
2016-Jun-23 04:33N 54°36' W 000°14'1515.0
2016-Jun-23 03:33N 54°27' E 000°08'1615.7
2016-Jun-23 02:33N 54°19' E 000°30'5918.2
2016-Jun-22 23:21N 53°47' E 001°54'1417.8
2016-Jun-22 22:33N 53°39' E 002°14'1716.9
2016-Jun-22 21:33N 53°28' E 002°36'1616.0
2016-Jun-22 20:33N 53°17' E 002°55'6515.9
2016-Jun-22 16:29N 52°36' E 004°18'1314.3
2016-Jun-22 15:34N 52°28' E 004°35'0 0.1
2016-Jun-22 14:33N 52°28' E 004°35'0 0.0
2016-Jun-22 13:33N 52°28' E 004°35'0 0.0
2016-Jun-22 12:34N 52°28' E 004°35'0 0.0
2016-Jun-22 11:34N 52°28' E 004°35'0 0.0
2016-Jun-22 10:33N 52°28' E 004°35'0 0.0
2016-Jun-22 09:33N 52°28' E 004°35'0 0.0
2016-Jun-22 08:34N 52°28' E 004°35'0 0.0
2016-Jun-22 07:33N 52°28' E 004°35'1110.9
2016-Jun-22 06:33N 52°34' E 004°21'1917.2
2016-Jun-22 05:28N 52°47' E 003°58'6917.3
2016-Jun-22 01:29N 53°31' E 002°29'1617.1
2016-Jun-22 00:33N 53°41' E 002°09'1717.1
2016-Jun-21 23:33N 53°51' E 001°45'4317.6
2016-Jun-21 21:07N 54°14' E 000°44'1017.6
2016-Jun-21 20:33N 54°20' E 000°30'1817.8
2016-Jun-21 19:33N 54°29' E 000°04'1818.3
2016-Jun-21 18:33N 54°39' W 000°22'1918.7
2016-Jun-21 17:33N 54°49' W 000°50'1918.7
2016-Jun-21 16:33N 54°59' W 001°17'6 5.6
2016-Jun-21 15:33N 54°59' W 001°27'0 0.0
2016-Jun-21 14:26N 54°59' W 001°27'0 0.0
2016-Jun-21 13:26N 54°59' W 001°27'0 0.0
2016-Jun-21 12:32N 54°59' W 001°27'0 0.0
2016-Jun-21 11:20N 54°59' W 001°27'0 0.0
2016-Jun-21 10:32N 54°59' W 001°27'0 0.0
2016-Jun-21 09:32N 54°59' W 001°27'0 0.0
2016-Jun-21 08:32N 54°59' W 001°27'5 4.7
2016-Jun-21 07:34N 55°01' W 001°19'1616.0
2016-Jun-21 06:33N 54°52' W 000°56'3316.5
2016-Jun-21 04:33N 54°34' W 000°08'1716.9
2016-Jun-21 03:33N 54°24' E 000°16'4217.7
2016-Jun-21 01:12N 54°02' E 001°16'1218.6
2016-Jun-21 00:33N 53°55' E 001°33'12216.6
2016-Jun-20 17:12N 52°39' E 004°13'914.9
2016-Jun-20 16:33N 52°33' E 004°25'8 8.0
2016-Jun-20 15:33N 52°28' E 004°35'0 0.0
2016-Jun-20 14:32N 52°28' E 004°35'0 0.0
2016-Jun-20 13:32N 52°28' E 004°35'0 0.0
2016-Jun-20 12:32N 52°28' E 004°35'0 0.0
2016-Jun-20 10:32N 52°28' E 004°35'0 0.0
2016-Jun-20 09:32N 52°28' E 004°35'0 0.0
2016-Jun-20 08:32N 52°28' E 004°35'1 0.6
2016-Jun-20 07:33N 52°28' E 004°34'1615.9
2016-Jun-20 06:33N 52°38' E 004°14'11816.8
2016-Jun-19 23:33N 53°52' E 001°42'1616.3
2016-Jun-19 22:33N 54°01' E 001°18'3316.7
2016-Jun-19 20:33N 54°19' E 000°31'1716.9
2016-Jun-19 19:33N 54°28' E 000°07'1717.3
2016-Jun-19 18:33N 54°38' W 000°18'1817.7
2016-Jun-19 17:33N 54°47' W 000°44'1818.1
2016-Jun-19 16:33N 54°57' W 001°11'9 9.5
2016-Jun-19 15:33N 54°59' W 001°27'0 0.0
2016-Jun-19 14:32N 54°59' W 001°27'0 0.0
2016-Jun-19 13:32N 54°59' W 001°27'0 0.0
2016-Jun-19 12:26N 54°59' W 001°27'0 0.0
2016-Jun-19 11:32N 54°59' W 001°27'0 0.0
2016-Jun-19 10:29N 54°59' W 001°27'0 0.0
2016-Jun-19 09:26N 54°59' W 001°27'0 0.0
2016-Jun-19 08:26N 54°59' W 001°27'3 3.6
2016-Jun-19 07:33N 55°01' W 001°22'1514.7
2016-Jun-19 06:33N 54°53' W 001°00'1515.2
2016-Jun-19 05:33N 54°45' W 000°38'1716.5
2016-Jun-19 04:33N 54°36' W 000°14'1716.5
2016-Jun-19 03:33N 54°27' E 000°09'1816.3
2016-Jun-19 02:27N 54°17' E 000°35'5117.6
2016-Jun-18 23:33N 53°50' E 001°49'1817.7
2016-Jun-18 22:33N 53°39' E 002°13'5216.6
2016-Jun-18 19:27N 53°06' E 003°19'4515.6
2016-Jun-18 16:33N 52°37' E 004°16'1414.0
2016-Jun-18 15:33N 52°28' E 004°34'1 0.9
2016-Jun-18 14:33N 52°28' E 004°35'0 0.0
2016-Jun-18 13:34N 52°28' E 004°35'0 0.0
2016-Jun-18 12:33N 52°28' E 004°35'0 0.0
2016-Jun-18 11:33N 52°28' E 004°35'0 0.0
2016-Jun-18 10:33N 52°28' E 004°35'0 0.0
2016-Jun-18 09:33N 52°28' E 004°35'0 0.0
2016-Jun-18 08:33N 52°28' E 004°35'0 0.1
2016-Jun-18 07:33N 52°28' E 004°35'1111.1
2016-Jun-18 06:33N 52°34' E 004°20'1716.5
2016-Jun-18 05:33N 52°45' E 003°59'7417.9
2016-Jun-18 01:24N 53°33' E 002°25'1517.3
2016-Jun-18 00:33N 53°43' E 002°06'7017.4
2016-Jun-17 20:33N 54°21' E 000°27'1817.5
2016-Jun-17 19:33N 54°30' E 000°02'1817.8
2016-Jun-17 18:34N 54°40' W 000°24'1818.0
2016-Jun-17 17:33N 54°50' W 000°50'  

Dump ship's entire track history